Portada
METAR-TAF:

METAR-TAF

Aeroports :

Ballina, Austràlia

latitud: 28-50-00S, longitud: 153-33-42E, altitud: 2 m

Observació

L'informe es va fer fa 44 minuts, a les 00:00 UTC
Vent 5 kt del Nord-Est, variant entre Nord/Nord-Oest i Est/Nord-Est
Temperatura 26°C
Humitat 70%
Pressió 1016 hPa
Visibilitat 10 km o més
Núvols disperses a una alçada de 2900 ft
Núvols disperses a una alçada de 4100 ft
Cel ennuvolat a una alçada de 4900 ft

METAR: YBNA 020000Z AUTO 04005KT 330V070 9999 // SCT029 SCT041 BKN049 26/20 Q1016

Hora: 11:44 (00:44 UTC)


TAF: manca

Observacions i pronòstics meteorològics de més de 4000 aeroports (METAR i TAF).

Les estacions disponibles són els punts grocs i vermells al mapa.

Posi el ratolí al punt desitjat per veure el nom de l'estació.

Feu clic per veure les observacions i els pronòstics meteorològics.

Per canviar el mapa: feu clic els botons verds amb una creu de color negre per apropar; al botó verd amb un guió per allunyar la imatge; o en les fletxes verdes per a mapes adjacents.


METAR-TAF: